sensor_id;sensor_type;location;lat;lon;timestamp;temperature;humidity
18577;DHT22;9418;52.694;13.294;2024-02-15T00:02:15;8.90;96.90
18577;DHT22;9418;52.694;13.294;2024-02-15T00:04:42;8.90;95.20
18577;DHT22;9418;52.694;13.294;2024-02-15T00:07:09;8.90;97.20
18577;DHT22;9418;52.694;13.294;2024-02-15T00:09:35;8.80;97.80
18577;DHT22;9418;52.694;13.294;2024-02-15T00:12:02;8.90;97.70
18577;DHT22;9418;52.694;13.294;2024-02-15T00:14:29;8.90;97.30
18577;DHT22;9418;52.694;13.294;2024-02-15T00:16:57;8.90;96.70
18577;DHT22;9418;52.694;13.294;2024-02-15T00:19:25;8.90;96.70
18577;DHT22;9418;52.694;13.294;2024-02-15T00:21:55;8.90;96.50
18577;DHT22;9418;52.694;13.294;2024-02-15T00:24:22;8.90;96.60
18577;DHT22;9418;52.694;13.294;2024-02-15T00:26:49;8.90;96.50
18577;DHT22;9418;52.694;13.294;2024-02-15T00:29:15;8.90;96.10
18577;DHT22;9418;52.694;13.294;2024-02-15T00:31:43;8.90;95.90
18577;DHT22;9418;52.694;13.294;2024-02-15T00:34:10;8.90;95.70
18577;DHT22;9418;52.694;13.294;2024-02-15T00:36:38;8.90;95.80
18577;DHT22;9418;52.694;13.294;2024-02-15T00:39:08;8.90;95.60
18577;DHT22;9418;52.694;13.294;2024-02-15T00:41:34;8.90;95.70
18577;DHT22;9418;52.694;13.294;2024-02-15T00:44:01;8.90;96.00
18577;DHT22;9418;52.694;13.294;2024-02-15T00:46:27;8.90;95.80
18577;DHT22;9418;52.694;13.294;2024-02-15T00:48:54;8.90;95.80
18577;DHT22;9418;52.694;13.294;2024-02-15T00:51:21;8.90;95.50
18577;DHT22;9418;52.694;13.294;2024-02-15T00:53:49;8.90;95.50
18577;DHT22;9418;52.694;13.294;2024-02-15T00:56:15;8.90;95.60
18577;DHT22;9418;52.694;13.294;2024-02-15T00:58:43;8.90;95.40
18577;DHT22;9418;52.694;13.294;2024-02-15T01:01:09;8.90;95.10
18577;DHT22;9418;52.694;13.294;2024-02-15T01:03:36;8.90;95.10
18577;DHT22;9418;52.694;13.294;2024-02-15T01:06:04;9.00;94.80
18577;DHT22;9418;52.694;13.294;2024-02-15T01:08:30;8.90;94.50
18577;DHT22;9418;52.694;13.294;2024-02-15T01:10:59;8.90;94.10
18577;DHT22;9418;52.694;13.294;2024-02-15T01:13:25;8.90;93.80
18577;DHT22;9418;52.694;13.294;2024-02-15T01:15:52;8.90;93.90
18577;DHT22;9418;52.694;13.294;2024-02-15T01:18:19;8.90;93.80
18577;DHT22;9418;52.694;13.294;2024-02-15T01:20:45;9.00;93.40
18577;DHT22;9418;52.694;13.294;2024-02-15T01:23:12;8.90;93.30
18577;DHT22;9418;52.694;13.294;2024-02-15T01:25:38;9.00;93.30
18577;DHT22;9418;52.694;13.294;2024-02-15T01:28:07;9.00;92.70
18577;DHT22;9418;52.694;13.294;2024-02-15T01:30:33;9.00;92.60
18577;DHT22;9418;52.694;13.294;2024-02-15T01:33:00;9.00;92.50
18577;DHT22;9418;52.694;13.294;2024-02-15T01:35:27;9.00;92.30
18577;DHT22;9418;52.694;13.294;2024-02-15T01:37:54;9.00;92.00
18577;DHT22;9418;52.694;13.294;2024-02-15T01:40:20;9.00;92.00
18577;DHT22;9418;52.694;13.294;2024-02-15T01:42:47;9.00;91.80
18577;DHT22;9418;52.694;13.294;2024-02-15T01:45:16;9.00;91.70
18577;DHT22;9418;52.694;13.294;2024-02-15T01:47:43;9.00;91.60
18577;DHT22;9418;52.694;13.294;2024-02-15T01:50:11;9.00;91.30
18577;DHT22;9418;52.694;13.294;2024-02-15T01:52:39;9.00;91.30
18577;DHT22;9418;52.694;13.294;2024-02-15T01:55:08;9.00;91.40
18577;DHT22;9418;52.694;13.294;2024-02-15T01:57:35;9.00;91.10
18577;DHT22;9418;52.694;13.294;2024-02-15T02:00:03;9.00;90.80
18577;DHT22;9418;52.694;13.294;2024-02-15T02:02:34;9.10;91.10
18577;DHT22;9418;52.694;13.294;2024-02-15T02:05:01;9.00;90.40
18577;DHT22;9418;52.694;13.294;2024-02-15T02:07:28;9.00;90.30
18577;DHT22;9418;52.694;13.294;2024-02-15T02:09:55;9.10;90.30
18577;DHT22;9418;52.694;13.294;2024-02-15T02:12:22;9.10;90.60
18577;DHT22;9418;52.694;13.294;2024-02-15T02:14:50;9.10;90.10
18577;DHT22;9418;52.694;13.294;2024-02-15T02:17:16;9.10;90.00
18577;DHT22;9418;52.694;13.294;2024-02-15T02:19:46;9.10;89.70
18577;DHT22;9418;52.694;13.294;2024-02-15T02:22:16;9.00;89.70
18577;DHT22;9418;52.694;13.294;2024-02-15T02:25:00;9.10;89.70
18577;DHT22;9418;52.694;13.294;2024-02-15T02:27:29;9.10;89.60
18577;DHT22;9418;52.694;13.294;2024-02-15T02:29:56;9.10;89.50
18577;DHT22;9418;52.694;13.294;2024-02-15T02:32:23;9.10;89.20
18577;DHT22;9418;52.694;13.294;2024-02-15T02:34:49;9.10;89.40
18577;DHT22;9418;52.694;13.294;2024-02-15T02:37:16;9.10;89.30
18577;DHT22;9418;52.694;13.294;2024-02-15T02:39:43;9.10;88.90
18577;DHT22;9418;52.694;13.294;2024-02-15T02:42:11;9.10;88.90
18577;DHT22;9418;52.694;13.294;2024-02-15T02:44:38;9.10;88.80
18577;DHT22;9418;52.694;13.294;2024-02-15T02:47:04;9.10;88.60
18577;DHT22;9418;52.694;13.294;2024-02-15T02:49:31;9.10;88.40
18577;DHT22;9418;52.694;13.294;2024-02-15T02:51:58;9.10;88.40
18577;DHT22;9418;52.694;13.294;2024-02-15T02:54:24;9.10;88.20
18577;DHT22;9418;52.694;13.294;2024-02-15T02:56:51;9.10;88.20
18577;DHT22;9418;52.694;13.294;2024-02-15T02:59:19;9.10;88.20
18577;DHT22;9418;52.694;13.294;2024-02-15T03:01:45;9.10;88.20
18577;DHT22;9418;52.694;13.294;2024-02-15T03:04:12;9.10;88.40
18577;DHT22;9418;52.694;13.294;2024-02-15T03:06:42;9.10;88.20
18577;DHT22;9418;52.694;13.294;2024-02-15T03:09:09;9.20;88.00
18577;DHT22;9418;52.694;13.294;2024-02-15T03:11:36;9.20;88.50
18577;DHT22;9418;52.694;13.294;2024-02-15T03:14:03;9.20;87.80
18577;DHT22;9418;52.694;13.294;2024-02-15T03:16:31;9.20;87.60
18577;DHT22;9418;52.694;13.294;2024-02-15T03:18:59;9.20;87.60
18577;DHT22;9418;52.694;13.294;2024-02-15T03:21:28;9.20;87.70
18577;DHT22;9418;52.694;13.294;2024-02-15T03:23:54;9.30;88.00
18577;DHT22;9418;52.694;13.294;2024-02-15T03:26:29;9.20;87.10
18577;DHT22;9418;52.694;13.294;2024-02-15T03:28:59;9.20;86.90
18577;DHT22;9418;52.694;13.294;2024-02-15T03:31:25;9.30;87.20
18577;DHT22;9418;52.694;13.294;2024-02-15T03:33:53;9.20;87.00
18577;DHT22;9418;52.694;13.294;2024-02-15T03:36:20;9.30;86.60
18577;DHT22;9418;52.694;13.294;2024-02-15T03:38:47;9.20;86.00
18577;DHT22;9418;52.694;13.294;2024-02-15T03:41:13;9.30;86.30
18577;DHT22;9418;52.694;13.294;2024-02-15T03:43:40;9.20;86.10
18577;DHT22;9418;52.694;13.294;2024-02-15T03:46:07;9.30;85.90
18577;DHT22;9418;52.694;13.294;2024-02-15T03:48:37;9.30;86.20
18577;DHT22;9418;52.694;13.294;2024-02-15T03:51:05;9.30;86.70
18577;DHT22;9418;52.694;13.294;2024-02-15T03:53:32;9.30;85.80
18577;DHT22;9418;52.694;13.294;2024-02-15T03:55:59;9.30;86.00
18577;DHT22;9418;52.694;13.294;2024-02-15T03:58:25;9.30;85.60
18577;DHT22;9418;52.694;13.294;2024-02-15T04:00:52;9.30;85.70
18577;DHT22;9418;52.694;13.294;2024-02-15T04:03:21;9.30;86.20
18577;DHT22;9418;52.694;13.294;2024-02-15T04:05:48;9.30;85.30
18577;DHT22;9418;52.694;13.294;2024-02-15T04:08:15;9.30;84.60
18577;DHT22;9418;52.694;13.294;2024-02-15T04:10:44;9.30;85.00
18577;DHT22;9418;52.694;13.294;2024-02-15T04:13:11;9.30;85.10
18577;DHT22;9418;52.694;13.294;2024-02-15T04:15:37;9.30;85.00
18577;DHT22;9418;52.694;13.294;2024-02-15T04:18:04;9.30;84.60
18577;DHT22;9418;52.694;13.294;2024-02-15T04:20:31;9.30;84.60
18577;DHT22;9418;52.694;13.294;2024-02-15T04:22:57;9.40;85.10
18577;DHT22;9418;52.694;13.294;2024-02-15T04:25:26;9.40;85.60
18577;DHT22;9418;52.694;13.294;2024-02-15T04:27:53;9.30;84.60
18577;DHT22;9418;52.694;13.294;2024-02-15T04:30:20;9.40;84.50
18577;DHT22;9418;52.694;13.294;2024-02-15T04:32:49;9.40;84.20
18577;DHT22;9418;52.694;13.294;2024-02-15T04:35:17;9.40;84.30
18577;DHT22;9418;52.694;13.294;2024-02-15T04:37:44;9.30;84.00
18577;DHT22;9418;52.694;13.294;2024-02-15T04:40:12;9.40;84.00
18577;DHT22;9418;52.694;13.294;2024-02-15T04:42:40;9.40;84.10
18577;DHT22;9418;52.694;13.294;2024-02-15T04:45:10;9.30;84.00
18577;DHT22;9418;52.694;13.294;2024-02-15T04:47:39;9.40;84.10
18577;DHT22;9418;52.694;13.294;2024-02-15T04:50:07;9.30;84.10
18577;DHT22;9418;52.694;13.294;2024-02-15T04:52:34;9.30;84.50
18577;DHT22;9418;52.694;13.294;2024-02-15T04:55:01;9.40;84.10
18577;DHT22;9418;52.694;13.294;2024-02-15T04:57:30;9.40;84.40
18577;DHT22;9418;52.694;13.294;2024-02-15T05:00:00;9.40;84.40
18577;DHT22;9418;52.694;13.294;2024-02-15T05:02:26;9.40;84.30
18577;DHT22;9418;52.694;13.294;2024-02-15T05:04:53;9.40;84.10
18577;DHT22;9418;52.694;13.294;2024-02-15T05:07:21;9.40;84.20
18577;DHT22;9418;52.694;13.294;2024-02-15T05:09:48;9.40;83.40
18577;DHT22;9418;52.694;13.294;2024-02-15T05:12:22;9.40;83.00
18577;DHT22;9418;52.694;13.294;2024-02-15T05:14:48;9.40;83.70
18577;DHT22;9418;52.694;13.294;2024-02-15T05:17:17;9.40;83.50
18577;DHT22;9418;52.694;13.294;2024-02-15T05:19:43;9.40;83.30
18577;DHT22;9418;52.694;13.294;2024-02-15T05:22:11;9.40;82.80
18577;DHT22;9418;52.694;13.294;2024-02-15T05:24:39;9.40;82.40
18577;DHT22;9418;52.694;13.294;2024-02-15T05:27:05;9.40;83.00
18577;DHT22;9418;52.694;13.294;2024-02-15T05:29:32;9.40;82.30
18577;DHT22;9418;52.694;13.294;2024-02-15T05:31:59;9.50;82.50
18577;DHT22;9418;52.694;13.294;2024-02-15T05:34:28;9.40;82.20
18577;DHT22;9418;52.694;13.294;2024-02-15T05:36:54;9.50;81.90
18577;DHT22;9418;52.694;13.294;2024-02-15T05:39:21;9.40;81.80
18577;DHT22;9418;52.694;13.294;2024-02-15T05:41:48;9.50;81.90
18577;DHT22;9418;52.694;13.294;2024-02-15T05:44:15;9.50;81.70
18577;DHT22;9418;52.694;13.294;2024-02-15T05:46:45;9.50;82.10
18577;DHT22;9418;52.694;13.294;2024-02-15T05:49:12;9.50;82.40
18577;DHT22;9418;52.694;13.294;2024-02-15T05:51:44;9.50;81.90
18577;DHT22;9418;52.694;13.294;2024-02-15T05:54:12;9.50;81.70
18577;DHT22;9418;52.694;13.294;2024-02-15T05:56:39;9.50;81.40
18577;DHT22;9418;52.694;13.294;2024-02-15T05:59:07;9.50;81.40
18577;DHT22;9418;52.694;13.294;2024-02-15T06:01:36;9.50;81.60
18577;DHT22;9418;52.694;13.294;2024-02-15T06:04:03;9.50;81.70
18577;DHT22;9418;52.694;13.294;2024-02-15T06:06:33;9.50;81.20
18577;DHT22;9418;52.694;13.294;2024-02-15T06:09:01;9.50;81.30
18577;DHT22;9418;52.694;13.294;2024-02-15T06:11:29;9.50;81.20
18577;DHT22;9418;52.694;13.294;2024-02-15T06:13:56;9.50;80.80
18577;DHT22;9418;52.694;13.294;2024-02-15T06:16:23;9.50;81.30
18577;DHT22;9418;52.694;13.294;2024-02-15T06:18:49;9.50;81.50
18577;DHT22;9418;52.694;13.294;2024-02-15T06:21:16;9.50;81.00
18577;DHT22;9418;52.694;13.294;2024-02-15T06:23:43;9.50;80.70
18577;DHT22;9418;52.694;13.294;2024-02-15T06:26:12;9.60;81.10
18577;DHT22;9418;52.694;13.294;2024-02-15T06:28:38;9.50;80.50
18577;DHT22;9418;52.694;13.294;2024-02-15T06:31:22;9.50;80.50
18577;DHT22;9418;52.694;13.294;2024-02-15T06:34:06;9.60;80.80
18577;DHT22;9418;52.694;13.294;2024-02-15T06:36:53;9.60;81.00
18577;DHT22;9418;52.694;13.294;2024-02-15T06:39:37;9.60;80.70
18577;DHT22;9418;52.694;13.294;2024-02-15T06:42:07;9.60;80.80
18577;DHT22;9418;52.694;13.294;2024-02-15T06:44:34;9.60;80.60
18577;DHT22;9418;52.694;13.294;2024-02-15T06:47:01;9.60;80.90
18577;DHT22;9418;52.694;13.294;2024-02-15T06:49:27;9.60;80.30
18577;DHT22;9418;52.694;13.294;2024-02-15T06:51:54;9.60;80.00
18577;DHT22;9418;52.694;13.294;2024-02-15T06:54:21;9.60;79.50
18577;DHT22;9418;52.694;13.294;2024-02-15T06:56:49;9.60;79.80
18577;DHT22;9418;52.694;13.294;2024-02-15T06:59:18;9.60;79.60
18577;DHT22;9418;52.694;13.294;2024-02-15T07:01:46;9.70;79.90
18577;DHT22;9418;52.694;13.294;2024-02-15T07:04:13;9.70;79.40
18577;DHT22;9418;52.694;13.294;2024-02-15T07:06:40;9.70;79.40
18577;DHT22;9418;52.694;13.294;2024-02-15T07:09:10;9.70;79.30
18577;DHT22;9418;52.694;13.294;2024-02-15T07:11:36;9.70;79.30
18577;DHT22;9418;52.694;13.294;2024-02-15T07:14:03;9.70;79.40
18577;DHT22;9418;52.694;13.294;2024-02-15T07:16:34;9.70;79.10
18577;DHT22;9418;52.694;13.294;2024-02-15T07:19:02;9.70;78.90
18577;DHT22;9418;52.694;13.294;2024-02-15T07:21:29;9.70;78.60
18577;DHT22;9418;52.694;13.294;2024-02-15T07:23:57;9.80;78.80
18577;DHT22;9418;52.694;13.294;2024-02-15T07:26:24;9.80;78.50
18577;DHT22;9418;52.694;13.294;2024-02-15T07:28:51;9.80;78.80
18577;DHT22;9418;52.694;13.294;2024-02-15T07:31:19;9.80;78.30
18577;DHT22;9418;52.694;13.294;2024-02-15T07:33:47;9.80;78.00
18577;DHT22;9418;52.694;13.294;2024-02-15T07:36:18;9.80;77.70
18577;DHT22;9418;52.694;13.294;2024-02-15T07:38:45;9.90;77.50
18577;DHT22;9418;52.694;13.294;2024-02-15T07:41:13;9.90;77.40
18577;DHT22;9418;52.694;13.294;2024-02-15T07:43:40;9.90;77.40
18577;DHT22;9418;52.694;13.294;2024-02-15T07:46:07;9.90;77.20
18577;DHT22;9418;52.694;13.294;2024-02-15T07:48:34;9.90;77.00
18577;DHT22;9418;52.694;13.294;2024-02-15T07:51:02;10.00;76.90
18577;DHT22;9418;52.694;13.294;2024-02-15T07:53:29;10.00;76.90
18577;DHT22;9418;52.694;13.294;2024-02-15T07:55:56;10.00;76.90
18577;DHT22;9418;52.694;13.294;2024-02-15T07:58:23;10.00;76.60
18577;DHT22;9418;52.694;13.294;2024-02-15T08:00:50;10.00;76.60
18577;DHT22;9418;52.694;13.294;2024-02-15T08:03:16;10.10;76.40
18577;DHT22;9418;52.694;13.294;2024-02-15T08:05:43;10.10;76.40
18577;DHT22;9418;52.694;13.294;2024-02-15T08:08:11;10.10;76.30
18577;DHT22;9418;52.694;13.294;2024-02-15T08:10:38;10.10;76.20
18577;DHT22;9418;52.694;13.294;2024-02-15T08:13:05;10.10;76.00
18577;DHT22;9418;52.694;13.294;2024-02-15T08:15:31;10.10;76.00
18577;DHT22;9418;52.694;13.294;2024-02-15T08:17:58;10.10;75.80
18577;DHT22;9418;52.694;13.294;2024-02-15T08:20:25;10.20;75.60
18577;DHT22;9418;52.694;13.294;2024-02-15T08:22:56;10.20;75.40
18577;DHT22;9418;52.694;13.294;2024-02-15T08:25:25;10.20;75.20
18577;DHT22;9418;52.694;13.294;2024-02-15T08:27:52;10.20;75.40
18577;DHT22;9418;52.694;13.294;2024-02-15T08:30:19;10.20;75.20
18577;DHT22;9418;52.694;13.294;2024-02-15T08:32:45;10.30;75.50
18577;DHT22;9418;52.694;13.294;2024-02-15T08:35:13;10.20;75.40
18577;DHT22;9418;52.694;13.294;2024-02-15T08:37:41;10.30;75.10
18577;DHT22;9418;52.694;13.294;2024-02-15T08:40:10;10.30;75.00
18577;DHT22;9418;52.694;13.294;2024-02-15T08:42:39;10.30;75.00
18577;DHT22;9418;52.694;13.294;2024-02-15T08:45:07;10.30;74.80
18577;DHT22;9418;52.694;13.294;2024-02-15T08:47:35;10.40;74.70
18577;DHT22;9418;52.694;13.294;2024-02-15T08:50:04;10.40;74.60
18577;DHT22;9418;52.694;13.294;2024-02-15T08:52:31;10.40;74.60
18577;DHT22;9418;52.694;13.294;2024-02-15T08:54:57;10.40;74.60
18577;DHT22;9418;52.694;13.294;2024-02-15T08:57:26;10.50;74.70
18577;DHT22;9418;52.694;13.294;2024-02-15T08:59:54;10.50;74.70
18577;DHT22;9418;52.694;13.294;2024-02-15T09:02:20;10.50;74.70
18577;DHT22;9418;52.694;13.294;2024-02-15T09:04:47;10.60;74.80
18577;DHT22;9418;52.694;13.294;2024-02-15T09:07:13;10.60;74.40
18577;DHT22;9418;52.694;13.294;2024-02-15T09:09:40;10.60;74.50
18577;DHT22;9418;52.694;13.294;2024-02-15T09:12:07;10.70;74.90
18577;DHT22;9418;52.694;13.294;2024-02-15T09:14:34;10.70;75.10
18577;DHT22;9418;52.694;13.294;2024-02-15T09:17:03;10.70;75.40
18577;DHT22;9418;52.694;13.294;2024-02-15T09:19:33;10.80;75.30
18577;DHT22;9418;52.694;13.294;2024-02-15T09:21:59;10.90;75.30
18577;DHT22;9418;52.694;13.294;2024-02-15T09:24:26;10.90;75.70
18577;DHT22;9418;52.694;13.294;2024-02-15T09:26:54;10.90;76.30
18577;DHT22;9418;52.694;13.294;2024-02-15T09:29:21;10.90;77.20
18577;DHT22;9418;52.694;13.294;2024-02-15T09:31:48;11.00;77.30
18577;DHT22;9418;52.694;13.294;2024-02-15T09:34:15;10.90;78.50
18577;DHT22;9418;52.694;13.294;2024-02-15T09:36:42;10.90;80.40
18577;DHT22;9418;52.694;13.294;2024-02-15T09:39:09;10.90;80.30
18577;DHT22;9418;52.694;13.294;2024-02-15T09:41:39;10.90;81.00
18577;DHT22;9418;52.694;13.294;2024-02-15T09:44:08;10.90;81.60
18577;DHT22;9418;52.694;13.294;2024-02-15T09:46:35;10.90;85.00
18577;DHT22;9418;52.694;13.294;2024-02-15T09:49:03;10.90;87.70
18577;DHT22;9418;52.694;13.294;2024-02-15T09:51:34;10.90;91.10
18577;DHT22;9418;52.694;13.294;2024-02-15T09:54:01;10.90;88.90
18577;DHT22;9418;52.694;13.294;2024-02-15T09:56:28;10.90;91.80
18577;DHT22;9418;52.694;13.294;2024-02-15T09:58:59;10.90;91.40
18577;DHT22;9418;52.694;13.294;2024-02-15T10:01:27;11.00;91.80
18577;DHT22;9418;52.694;13.294;2024-02-15T10:03:57;11.00;95.90
18577;DHT22;9418;52.694;13.294;2024-02-15T10:06:25;11.00;95.10
18577;DHT22;9418;52.694;13.294;2024-02-15T10:08:53;11.10;96.80
18577;DHT22;9418;52.694;13.294;2024-02-15T10:11:22;11.00;98.40
18577;DHT22;9418;52.694;13.294;2024-02-15T10:13:49;11.10;99.90
18577;DHT22;9418;52.694;13.294;2024-02-15T10:16:16;11.10;99.90
18577;DHT22;9418;52.694;13.294;2024-02-15T10:18:44;11.20;99.90
18577;DHT22;9418;52.694;13.294;2024-02-15T10:21:24;11.20;99.90
18577;DHT22;9418;52.694;13.294;2024-02-15T10:24:04;11.20;99.90
18577;DHT22;9418;52.694;13.294;2024-02-15T10:26:31;11.20;99.90
18577;DHT22;9418;52.694;13.294;2024-02-15T10:29:10;11.20;99.90
18577;DHT22;9418;52.694;13.294;2024-02-15T10:31:37;11.20;99.90
18577;DHT22;9418;52.694;13.294;2024-02-15T10:34:06;11.30;99.90
18577;DHT22;9418;52.694;13.294;2024-02-15T10:36:34;11.30;99.90
18577;DHT22;9418;52.694;13.294;2024-02-15T10:39:19;11.30;99.90
18577;DHT22;9418;52.694;13.294;2024-02-15T10:41:47;11.40;99.90
18577;DHT22;9418;52.694;13.294;2024-02-15T10:44:16;11.40;99.90
18577;DHT22;9418;52.694;13.294;2024-02-15T10:46:45;11.50;99.90
18577;DHT22;9418;52.694;13.294;2024-02-15T10:49:16;11.50;99.90
18577;DHT22;9418;52.694;13.294;2024-02-15T10:51:44;11.60;99.90
18577;DHT22;9418;52.694;13.294;2024-02-15T10:54:12;11.70;99.90
18577;DHT22;9418;52.694;13.294;2024-02-15T10:56:43;11.70;99.90
18577;DHT22;9418;52.694;13.294;2024-02-15T10:59:17;11.70;99.90
18577;DHT22;9418;52.694;13.294;2024-02-15T11:01:45;11.80;99.90
18577;DHT22;9418;52.694;13.294;2024-02-15T11:04:15;11.80;99.90
18577;DHT22;9418;52.694;13.294;2024-02-15T11:06:43;11.90;99.90
18577;DHT22;9418;52.694;13.294;2024-02-15T11:09:10;12.00;99.90
18577;DHT22;9418;52.694;13.294;2024-02-15T11:11:40;12.00;99.90
18577;DHT22;9418;52.694;13.294;2024-02-15T11:14:23;12.10;99.90
18577;DHT22;9418;52.694;13.294;2024-02-15T11:16:50;12.10;99.90
18577;DHT22;9418;52.694;13.294;2024-02-15T11:19:42;12.10;99.90
18577;DHT22;9418;52.694;13.294;2024-02-15T11:22:12;12.20;99.90
18577;DHT22;9418;52.694;13.294;2024-02-15T11:24:46;12.20;99.90
18577;DHT22;9418;52.694;13.294;2024-02-15T11:27:24;12.30;99.90
18577;DHT22;9418;52.694;13.294;2024-02-15T11:29:53;12.30;99.90
18577;DHT22;9418;52.694;13.294;2024-02-15T11:32:37;12.20;99.90
18577;DHT22;9418;52.694;13.294;2024-02-15T11:35:06;12.30;99.90
18577;DHT22;9418;52.694;13.294;2024-02-15T11:37:56;12.40;99.90
18577;DHT22;9418;52.694;13.294;2024-02-15T11:40:28;12.40;99.90
18577;DHT22;9418;52.694;13.294;2024-02-15T11:42:57;12.50;99.90
18577;DHT22;9418;52.694;13.294;2024-02-15T11:45:25;12.50;99.90
18577;DHT22;9418;52.694;13.294;2024-02-15T11:47:58;12.50;99.90
18577;DHT22;9418;52.694;13.294;2024-02-15T11:50:27;12.40;99.90
18577;DHT22;9418;52.694;13.294;2024-02-15T11:53:02;12.40;99.90
18577;DHT22;9418;52.694;13.294;2024-02-15T11:55:31;12.40;99.90
18577;DHT22;9418;52.694;13.294;2024-02-15T11:58:00;12.30;99.90
18577;DHT22;9418;52.694;13.294;2024-02-15T12:00:31;12.30;99.90
18577;DHT22;9418;52.694;13.294;2024-02-15T12:03:16;12.30;99.90
18577;DHT22;9418;52.694;13.294;2024-02-15T12:06:01;12.30;99.90
18577;DHT22;9418;52.694;13.294;2024-02-15T12:08:46;12.30;99.90
18577;DHT22;9418;52.694;13.294;2024-02-15T12:11:39;12.30;99.90
18577;DHT22;9418;52.694;13.294;2024-02-15T12:14:25;12.20;99.90
18577;DHT22;9418;52.694;13.294;2024-02-15T12:17:10;12.20;99.90
18577;DHT22;9418;52.694;13.294;2024-02-15T12:19:56;12.20;99.90
18577;DHT22;9418;52.694;13.294;2024-02-15T12:22:25;12.20;99.90
18577;DHT22;9418;52.694;13.294;2024-02-15T12:24:54;12.20;99.90
18577;DHT22;9418;52.694;13.294;2024-02-15T12:27:21;12.20;99.90
18577;DHT22;9418;52.694;13.294;2024-02-15T12:29:54;12.20;99.90
18577;DHT22;9418;52.694;13.294;2024-02-15T12:32:22;12.20;99.90
18577;DHT22;9418;52.694;13.294;2024-02-15T12:34:49;12.20;99.90
18577;DHT22;9418;52.694;13.294;2024-02-15T12:37:18;12.20;99.90
18577;DHT22;9418;52.694;13.294;2024-02-15T12:39:46;12.30;99.90
18577;DHT22;9418;52.694;13.294;2024-02-15T12:42:13;12.30;99.90
18577;DHT22;9418;52.694;13.294;2024-02-15T12:44:43;12.40;99.90
18577;DHT22;9418;52.694;13.294;2024-02-15T12:47:19;12.40;99.90
18577;DHT22;9418;52.694;13.294;2024-02-15T12:49:45;12.40;99.90
18577;DHT22;9418;52.694;13.294;2024-02-15T12:52:34;12.50;99.90
18577;DHT22;9418;52.694;13.294;2024-02-15T12:55:09;12.40;99.90
18577;DHT22;9418;52.694;13.294;2024-02-15T12:57:36;12.50;99.90
18577;DHT22;9418;52.694;13.294;2024-02-15T13:00:06;12.50;99.90
18577;DHT22;9418;52.694;13.294;2024-02-15T13:02:38;12.60;99.90
18577;DHT22;9418;52.694;13.294;2024-02-15T13:05:05;12.60;99.90
18577;DHT22;9418;52.694;13.294;2024-02-15T13:07:33;12.60;99.90
18577;DHT22;9418;52.694;13.294;2024-02-15T13:10:00;12.60;99.90
18577;DHT22;9418;52.694;13.294;2024-02-15T13:12:26;12.60;99.90
18577;DHT22;9418;52.694;13.294;2024-02-15T13:14:53;12.60;99.90
18577;DHT22;9418;52.694;13.294;2024-02-15T13:17:20;12.60;99.90
18577;DHT22;9418;52.694;13.294;2024-02-15T13:19:49;12.60;99.90
18577;DHT22;9418;52.694;13.294;2024-02-15T13:22:16;12.60;99.90
18577;DHT22;9418;52.694;13.294;2024-02-15T13:24:44;12.60;99.90
18577;DHT22;9418;52.694;13.294;2024-02-15T13:27:10;12.60;99.90
18577;DHT22;9418;52.694;13.294;2024-02-15T13:29:37;12.60;99.90
18577;DHT22;9418;52.694;13.294;2024-02-15T13:32:05;12.60;99.90
18577;DHT22;9418;52.694;13.294;2024-02-15T13:34:32;12.60;99.90
18577;DHT22;9418;52.694;13.294;2024-02-15T13:37:01;12.60;99.90
18577;DHT22;9418;52.694;13.294;2024-02-15T13:39:29;12.60;99.90
18577;DHT22;9418;52.694;13.294;2024-02-15T13:41:59;12.50;99.90
18577;DHT22;9418;52.694;13.294;2024-02-15T13:44:26;12.50;99.90
18577;DHT22;9418;52.694;13.294;2024-02-15T13:46:53;12.60;99.90
18577;DHT22;9418;52.694;13.294;2024-02-15T13:49:20;12.60;99.90
18577;DHT22;9418;52.694;13.294;2024-02-15T13:51:47;12.60;99.90
18577;DHT22;9418;52.694;13.294;2024-02-15T13:54:18;12.60;99.90
18577;DHT22;9418;52.694;13.294;2024-02-15T13:56:45;12.60;99.90
18577;DHT22;9418;52.694;13.294;2024-02-15T13:59:12;12.60;99.90
18577;DHT22;9418;52.694;13.294;2024-02-15T14:01:39;12.70;99.90
18577;DHT22;9418;52.694;13.294;2024-02-15T14:04:10;12.60;99.90
18577;DHT22;9418;52.694;13.294;2024-02-15T14:06:37;12.70;99.90
18577;DHT22;9418;52.694;13.294;2024-02-15T14:09:05;12.60;99.90
18577;DHT22;9418;52.694;13.294;2024-02-15T14:11:33;12.60;99.90
18577;DHT22;9418;52.694;13.294;2024-02-15T14:14:00;12.60;99.90
18577;DHT22;9418;52.694;13.294;2024-02-15T14:16:26;12.60;99.90
18577;DHT22;9418;52.694;13.294;2024-02-15T14:18:54;12.60;99.90
18577;DHT22;9418;52.694;13.294;2024-02-15T14:21:21;12.60;99.90
18577;DHT22;9418;52.694;13.294;2024-02-15T14:23:47;12.60;99.90
18577;DHT22;9418;52.694;13.294;2024-02-15T14:26:14;12.60;99.90
18577;DHT22;9418;52.694;13.294;2024-02-15T14:28:43;12.60;99.90
18577;DHT22;9418;52.694;13.294;2024-02-15T14:31:11;12.60;99.90
18577;DHT22;9418;52.694;13.294;2024-02-15T14:33:55;12.60;99.90
18577;DHT22;9418;52.694;13.294;2024-02-15T14:36:22;12.60;99.90
18577;DHT22;9418;52.694;13.294;2024-02-15T14:38:48;12.50;99.90
18577;DHT22;9418;52.694;13.294;2024-02-15T14:41:17;12.50;99.90
18577;DHT22;9418;52.694;13.294;2024-02-15T14:43:45;12.40;99.90
18577;DHT22;9418;52.694;13.294;2024-02-15T14:46:11;12.50;99.90
18577;DHT22;9418;52.694;13.294;2024-02-15T14:48:38;12.50;99.90
18577;DHT22;9418;52.694;13.294;2024-02-15T14:51:05;12.50;99.90
18577;DHT22;9418;52.694;13.294;2024-02-15T14:53:34;12.50;99.90
18577;DHT22;9418;52.694;13.294;2024-02-15T14:56:01;12.60;99.90
18577;DHT22;9418;52.694;13.294;2024-02-15T14:58:30;12.50;99.90
18577;DHT22;9418;52.694;13.294;2024-02-15T15:00:58;12.50;99.90
18577;DHT22;9418;52.694;13.294;2024-02-15T15:03:24;12.50;99.90
18577;DHT22;9418;52.694;13.294;2024-02-15T15:05:51;12.50;99.90
18577;DHT22;9418;52.694;13.294;2024-02-15T15:08:36;12.50;99.90
18577;DHT22;9418;52.694;13.294;2024-02-15T15:11:20;12.50;99.90
18577;DHT22;9418;52.694;13.294;2024-02-15T15:14:04;12.50;99.90
18577;DHT22;9418;52.694;13.294;2024-02-15T15:16:32;12.40;99.90
18577;DHT22;9418;52.694;13.294;2024-02-15T15:18:59;12.40;99.90
18577;DHT22;9418;52.694;13.294;2024-02-15T15:21:25;12.40;99.90
18577;DHT22;9418;52.694;13.294;2024-02-15T15:23:53;12.40;99.90
18577;DHT22;9418;52.694;13.294;2024-02-15T15:26:20;12.40;99.90
18577;DHT22;9418;52.694;13.294;2024-02-15T15:28:47;12.40;99.90
18577;DHT22;9418;52.694;13.294;2024-02-15T15:31:14;12.40;99.90
18577;DHT22;9418;52.694;13.294;2024-02-15T15:33:42;12.30;99.90
18577;DHT22;9418;52.694;13.294;2024-02-15T15:36:09;12.30;99.90
18577;DHT22;9418;52.694;13.294;2024-02-15T15:38:36;12.30;99.90
18577;DHT22;9418;52.694;13.294;2024-02-15T15:41:03;12.40;99.90
18577;DHT22;9418;52.694;13.294;2024-02-15T15:43:29;12.40;99.90
18577;DHT22;9418;52.694;13.294;2024-02-15T15:45:56;12.40;99.90
18577;DHT22;9418;52.694;13.294;2024-02-15T15:48:23;12.40;99.90